Time;durP1;ratioP1;P1;durP2;ratioP2;P2;SDS_P1;SDS_P2;PMS_P1;PMS_P2;Temp;Humidity;BMP_temperature;BMP_pressure;BME280_temperature;BME280_humidity;BME280_pressure;Samples;Min_cycle;Max_cycle;Signal;HPM_P1;HPM_P2
2021/09/06 00:00:07;;;;;;;6.50;4.67;;;;;;;8.22;76.93;101401.84;1692328;83;21558;-43
2021/09/06 00:02:35;;;;;;;5.83;5.07;;;;;;;8.20;76.96;101399.82;1687443;83;21401;-44
2021/09/06 00:05:09;;;;;;;5.35;4.30;;;;;;;8.15;77.06;101403.40;1692559;83;21040;-45
2021/09/06 00:07:39;;;;;;;6.27;4.60;;;;;;;8.07;77.37;101408.11;1692588;83;21530;-45
2021/09/06 00:10:42;;;;;;;5.53;4.83;;;;;;;8.04;77.71;101404.91;1687378;83;21020;-45
2021/09/06 00:13:16;;;;;;;6.50;5.27;;;;;;;8.06;77.77;101405.59;1690245;83;21566;-44
2021/09/06 00:15:44;;;;;;;9.50;6.00;;;;;;;8.05;77.75;101398.63;1692817;83;20989;-45
2021/09/06 00:18:12;;;;;;;6.07;5.27;;;;;;;8.05;78.02;101399.96;1688006;83;21138;-45
2021/09/06 00:20:40;;;;;;;7.50;5.60;;;;;;;8.06;78.04;101405.12;1690476;83;21097;-45
2021/09/06 00:23:10;;;;;;;8.17;5.47;;;;;;;8.08;78.08;101406.28;1713024;82;21396;-44
2021/09/06 00:25:38;;;;;;;7.90;6.20;;;;;;;8.09;78.13;101407.98;1731235;81;21013;-45
2021/09/06 00:28:04;;;;;;;6.07;5.57;;;;;;;8.08;78.30;101404.49;1734227;81;21104;-46
2021/09/06 00:30:33;;;;;;;5.97;5.40;;;;;;;8.06;78.36;101405.12;1728291;81;21551;-45
2021/09/06 00:33:01;;;;;;;6.33;5.03;;;;;;;8.09;78.37;101407.48;1733256;82;20986;-46
2021/09/06 00:35:27;;;;;;;7.03;5.60;;;;;;;8.11;78.07;101404.67;1733584;81;20990;-46
2021/09/06 00:37:54;;;;;;;5.67;5.07;;;;;;;8.12;77.92;101402.38;1723008;81;21085;-46
2021/09/06 00:40:22;;;;;;;7.03;5.57;;;;;;;8.10;77.81;101406.51;1734819;82;21088;-45
2021/09/06 00:42:51;;;;;;;6.70;6.03;;;;;;;8.09;77.71;101403.99;1718660;81;21013;-45
2021/09/06 00:45:18;;;;;;;5.57;4.90;;;;;;;8.05;77.65;101409.25;1736467;81;21045;-45
2021/09/06 00:47:45;;;;;;;7.53;5.50;;;;;;;7.97;77.78;101408.66;1735038;82;21134;-45
2021/09/06 00:50:14;;;;;;;6.50;5.43;;;;;;;7.90;77.85;101407.55;1735743;82;21037;-45
2021/09/06 00:52:44;;;;;;;5.87;5.10;;;;;;;7.84;77.71;101410.30;1734824;82;20989;-45
2021/09/06 00:55:14;;;;;;;7.77;5.83;;;;;;;7.83;77.70;101412.59;1738776;82;21087;-45
2021/09/06 00:57:43;;;;;;;7.07;6.27;;;;;;;7.82;77.69;101412.26;1729518;81;20978;-45
2021/09/06 01:00:13;;;;;;;5.83;5.30;;;;;;;7.79;77.75;101412.03;1734657;81;21033;-45
2021/09/06 01:02:40;;;;;;;7.57;5.57;;;;;;;7.78;77.87;101410.88;1728773;82;21033;-45
2021/09/06 01:05:07;;;;;;;;;;;;;;;7.78;77.98;101409.05;1704944;82;21023;-46
2021/09/06 01:07:39;;;;;;;6.77;6.07;;;;;;;7.77;78.03;101402.55;1727887;81;20123;-45
2021/09/06 01:10:23;;;;;;;7.10;5.13;;;;;;;7.67;78.26;101407.06;1732283;82;21021;-45
2021/09/06 01:12:57;;;;;;;6.43;5.10;;;;;;;7.58;78.24;101410.90;1722557;81;20994;-44
2021/09/06 01:15:23;;;;;;;10.28;5.15;;;;;;;7.55;78.10;101406.36;1727911;81;21088;-44
2021/09/06 01:17:49;;;;;;;6.45;5.12;;;;;;;7.52;78.11;101408.82;1728759;81;21116;-44
2021/09/06 01:20:17;;;;;;;5.67;5.10;;;;;;;7.50;78.17;101410.78;1721136;81;21141;-44
2021/09/06 01:22:45;;;;;;;6.63;5.40;;;;;;;7.49;78.06;101413.08;1730109;81;21013;-45
2021/09/06 01:25:18;;;;;;;9.23;6.33;;;;;;;7.46;78.10;101412.52;1735806;82;21049;-44
2021/09/06 01:27:47;;;;;;;5.73;5.03;;;;;;;7.43;78.05;101410.17;1735258;81;21065;-45
2021/09/06 01:30:16;;;;;;;7.57;5.13;;;;;;;7.38;78.13;101419.39;1732194;81;22306;-45
2021/09/06 01:32:43;;;;;;;7.00;5.23;;;;;;;7.35;78.43;101416.18;1730949;82;21067;-44
2021/09/06 01:35:10;;;;;;;7.33;5.30;;;;;;;7.31;78.69;101419.60;1731465;81;20990;-45
2021/09/06 01:37:38;;;;;;;7.40;5.20;;;;;;;7.30;78.81;101422.39;1724387;81;21051;-45
2021/09/06 01:40:07;;;;;;;9.40;5.73;;;;;;;7.30;78.78;101419.73;1681051;84;21729;-46
2021/09/06 01:42:33;;;;;;;5.43;4.93;;;;;;;7.34;78.59;101426.42;1736472;81;20978;-45
2021/09/06 01:45:03;;;;;;;5.17;4.57;;;;;;;7.34;78.46;101421.95;1735891;80;21069;-44
2021/09/06 01:47:31;;;;;;;6.83;5.77;;;;;;;7.37;78.41;101423.50;1703523;83;20999;-44
2021/09/06 01:49:57;;;;;;;6.23;5.63;;;;;;;7.38;78.21;101429.14;1727788;81;21903;-44
2021/09/06 01:52:25;;;;;;;;;;;;;;;7.37;78.03;101435.44;1735490;82;21089;-43
2021/09/06 01:54:53;;;;;;;6.83;6.10;;;;;;;7.30;77.93;101433.00;1739222;82;20484;-43
2021/09/06 01:57:20;;;;;;;6.53;5.90;;;;;;;7.17;78.04;101431.94;1731466;82;21603;-44
2021/09/06 01:59:46;;;;;;;6.63;5.87;;;;;;;7.10;78.12;101435.66;1735278;81;21033;-44
2021/09/06 02:02:12;;;;;;;7.37;6.12;;;;;;;7.04;78.04;101432.70;1731468;82;21015;-44
2021/09/06 02:04:41;;;;;;;8.40;5.53;;;;;;;7.00;78.00;101430.81;1735323;81;21575;-44
2021/09/06 02:07:07;;;;;;;6.67;5.55;;;;;;;6.96;78.19;101434.23;1734400;81;21047;-43
2021/09/06 02:09:33;;;;;;;5.97;5.37;;;;;;;6.93;78.32;101434.52;1733130;82;21002;-44
2021/09/06 02:12:04;;;;;;;7.10;5.93;;;;;;;6.93;78.48;101431.02;1732350;81;21750;-43
2021/09/06 02:14:33;;;;;;;12.30;6.13;;;;;;;6.94;78.58;101435.35;1733873;82;20966;-44
2021/09/06 02:17:00;;;;;;;6.17;5.63;;;;;;;6.94;78.60;101432.20;1730776;81;21673;-43
2021/09/06 02:19:34;;;;;;;8.57;6.13;;;;;;;6.91;78.69;101442.23;1739887;81;21764;-44
2021/09/06 02:22:02;;;;;;;6.73;6.13;;;;;;;6.83;78.92;101439.78;1733955;82;21129;-43
2021/09/06 02:24:30;;;;;;;7.77;6.97;;;;;;;6.80;79.16;101441.40;1730535;81;21035;-44
2021/09/06 02:26:58;;;;;;;8.13;7.03;;;;;;;6.82;79.32;101443.92;1733020;81;21586;-45
2021/09/06 02:29:26;;;;;;;7.17;6.43;;;;;;;6.88;79.25;101439.39;1727652;81;21530;-44
2021/09/06 02:32:11;;;;;;;6.77;5.77;;;;;;;6.94;79.22;101449.93;1734913;82;21073;-45
2021/09/06 02:34:45;;;;;;;7.17;5.20;;;;;;;6.97;79.27;101446.52;1727570;78;21038;-45
2021/09/06 02:37:12;;;;;;;6.47;5.70;;;;;;;6.99;79.27;101441.92;1735034;81;21150;-44
2021/09/06 02:39:41;;;;;;;7.20;6.30;;;;;;;7.01;79.20;101441.78;1732474;81;21130;-52
2021/09/06 02:42:09;;;;;;;6.60;6.00;;;;;;;6.99;79.18;101440.59;1731064;82;22266;-44
2021/09/06 02:44:35;;;;;;;8.23;6.77;;;;;;;6.93;79.28;101447.77;1696785;79;21565;-43
2021/09/06 02:47:04;;;;;;;7.17;6.47;;;;;;;6.90;79.48;101451.19;1732460;81;21041;-44
2021/09/06 02:49:32;;;;;;;7.40;6.70;;;;;;;6.90;79.65;101449.36;1733840;81;21177;-44
2021/09/06 02:51:59;;;;;;;5.93;5.33;;;;;;;6.96;79.56;101454.60;1730686;81;21004;-44
2021/09/06 02:54:27;;;;;;;6.73;6.03;;;;;;;7.03;79.47;101449.11;1733105;81;21041;-44
2021/09/06 02:56:54;;;;;;;5.60;5.20;;;;;;;7.09;79.45;101452.52;1734389;81;21032;-44
2021/09/06 02:59:22;;;;;;;7.97;6.10;;;;;;;7.13;79.35;101452.59;1733878;81;21002;-45
2021/09/06 03:01:48;;;;;;;7.87;6.75;;;;;;;7.17;79.33;101453.98;1730064;81;21116;-42
2021/09/06 03:04:14;;;;;;;7.20;6.50;;;;;;;7.18;79.32;101449.05;1733138;81;21004;-44
2021/09/06 03:06:43;;;;;;;6.80;6.23;;;;;;;7.15;79.30;101451.96;1735201;81;21061;-45
2021/09/06 03:09:10;;;;;;;7.20;6.50;;;;;;;7.08;79.30;101460.11;1733431;81;21126;-44
2021/09/06 03:11:38;;;;;;;6.45;5.85;;;;;;;7.04;79.37;101458.72;1738487;81;21052;-43
2021/09/06 03:14:05;;;;;;;8.77;7.17;;;;;;;7.05;79.51;101465.71;1743738;81;21052;-44
2021/09/06 03:16:32;;;;;;;6.13;5.53;;;;;;;7.08;79.69;101462.77;1737472;82;21004;-44
2021/09/06 03:19:00;;;;;;;8.03;7.10;;;;;;;7.12;79.71;101465.52;1735312;81;21565;-45
2021/09/06 03:21:29;;;;;;;7.63;6.10;;;;;;;7.18;79.86;101468.10;1728494;81;21030;-44
2021/09/06 03:23:55;;;;;;;7.83;7.10;;;;;;;7.26;79.99;101470.06;1734367;82;20978;-44
2021/09/06 03:26:24;;;;;;;9.83;7.47;;;;;;;7.31;80.05;101467.34;1734024;81;21110;-45
2021/09/06 03:28:52;;;;;;;6.83;6.17;;;;;;;7.36;80.07;101469.06;1735175;81;22137;-44
2021/09/06 03:31:20;;;;;;;8.20;7.37;;;;;;;7.40;80.09;101472.28;1705310;81;21184;-46
2021/09/06 03:33:47;;;;;;;8.53;6.90;;;;;;;7.45;79.79;101471.37;1719450;82;21033;-44
2021/09/06 03:36:13;;;;;;;9.17;7.37;;;;;;;7.46;79.48;101458.94;1678118;83;21436;-44
2021/09/06 03:38:40;;;;;;;8.20;7.50;;;;;;;7.58;79.47;101472.42;1704239;83;21566;-44
2021/09/06 03:41:07;;;;;;;7.83;6.93;;;;;;;7.66;79.46;101474.37;1662536;85;21616;-45
2021/09/06 03:43:38;;;;;;;8.60;7.10;;;;;;;7.72;79.48;101472.47;1656310;85;21582;-48
2021/09/06 03:46:04;;;;;;;8.03;7.23;;;;;;;7.82;79.59;101471.98;1727651;81;21081;-45
2021/09/06 03:48:31;;;;;;;7.73;7.00;;;;;;;7.92;79.63;101477.27;1735864;81;21124;-44
2021/09/06 03:50:59;;;;;;;7.50;6.80;;;;;;;7.99;79.57;101478.38;1733928;81;21013;-44
2021/09/06 03:54:35;;;;;;;8.63;7.80;;;;;;;8.17;79.31;101477.13;1802899;79;22579;-45
2021/09/06 03:57:04;;;;;;;8.90;8.00;;;;;;;8.19;79.03;101483.12;1756903;79;21606;-44
2021/09/06 03:59:32;;;;;;;13.73;8.17;;;;;;;8.30;78.92;101483.45;1756300;81;21056;-44
2021/09/06 04:01:58;;;;;;;;;;;;;;;8.39;78.63;101482.58;1757336;81;20990;-44
2021/09/06 04:04:24;;;;;;;10.27;8.10;;;;;;;8.47;78.53;101487.19;1757907;81;20511;-44
2021/09/06 04:06:53;;;;;;;8.20;7.50;;;;;;;8.51;78.65;101489.42;1755906;81;21045;-45
2021/09/06 04:09:23;;;;;;;8.70;7.70;;;;;;;8.60;78.35;101493.00;1726418;81;21017;-45
2021/09/06 04:11:50;;;;;;;10.30;9.33;;;;;;;8.63;78.29;101494.05;1749861;81;21033;-47
2021/09/06 04:14:17;;;;;;;8.40;7.50;;;;;;;8.68;78.19;101499.77;1743045;81;21603;-45
2021/09/06 04:16:45;;;;;;;9.13;8.23;;;;;;;8.74;78.30;101495.18;1742342;81;21728;-45
2021/09/06 04:19:12;;;;;;;10.27;8.40;;;;;;;8.87;77.98;101492.65;1749192;81;21592;-45
2021/09/06 04:21:40;;;;;;;13.27;8.40;;;;;;;8.99;77.77;101498.63;1742000;81;21571;-45
2021/09/06 04:24:06;;;;;;;9.75;8.70;;;;;;;9.09;77.65;101498.88;1714320;81;21111;-44
2021/09/06 04:26:33;;;;;;;9.50;7.80;;;;;;;9.20;77.47;101508.98;1715589;82;20989;-45
2021/09/06 04:29:00;;;;;;;9.37;8.30;;;;;;;9.27;77.47;101503.41;1698513;83;21084;-46
2021/09/06 04:31:26;;;;;;;;;;;;;;;9.33;77.32;101504.12;1661111;84;21166;-46
2021/09/06 04:33:53;;;;;;;9.93;8.93;;;;;;;9.44;77.30;101503.06;1657424;85;20168;-46
2021/09/06 04:36:21;;;;;;;11.10;8.77;;;;;;;9.50;77.16;101502.45;1698587;83;21041;-54
2021/09/06 04:38:48;;;;;;;9.77;8.67;;;;;;;9.69;76.71;101507.59;1668408;84;21066;-46
2021/09/06 04:41:15;;;;;;;10.23;9.15;;;;;;;9.86;76.06;101504.56;1707257;83;21049;-45
2021/09/06 04:43:42;;;;;;;10.23;9.23;;;;;;;10.00;75.62;101510.32;1680491;84;21572;-44
2021/09/06 04:46:09;;;;;;;12.80;9.23;;;;;;;10.11;75.57;101504.73;1704205;82;21029;-45
2021/09/06 04:48:38;;;;;;;12.07;9.73;;;;;;;10.31;75.57;101506.73;1670488;85;21153;-45
2021/09/06 04:51:05;;;;;;;12.00;9.93;;;;;;;10.56;75.32;101505.52;1653823;84;21097;-45
2021/09/06 04:53:32;;;;;;;12.95;10.23;;;;;;;10.91;74.79;101513.84;1662846;84;21691;-45
2021/09/06 04:55:58;;;;;;;11.70;9.83;;;;;;;11.33;73.33;101508.92;1678069;83;21523;-45
2021/09/06 04:58:26;;;;;;;10.58;9.18;;;;;;;11.65;71.83;101505.95;1658851;84;21119;-45
2021/09/06 05:00:51;;;;;;;9.55;8.55;;;;;;;11.94;70.15;101510.83;1686162;83;20991;-46
2021/09/06 05:03:18;;;;;;;9.85;8.95;;;;;;;12.25;68.44;101512.26;1706833;83;20974;-45
2021/09/06 05:05:45;;;;;;;8.88;8.08;;;;;;;12.60;66.45;101500.80;1697197;83;21558;-46
2021/09/06 05:08:12;;;;;;;8.13;7.10;;;;;;;13.08;64.78;101498.56;1709550;83;21118;-48
2021/09/06 05:10:39;;;;;;;7.50;6.60;;;;;;;13.63;61.56;101501.03;1699936;83;21117;-46
2021/09/06 05:13:07;;;;;;;10.58;7.42;;;;;;;14.11;59.79;101503.95;1717733;82;21050;-45
2021/09/06 05:15:34;;;;;;;8.75;6.75;;;;;;;14.52;57.73;101502.17;1702031;83;21646;-46
2021/09/06 05:18:01;;;;;;;6.65;6.00;;;;;;;14.81;55.66;101505.38;1693678;83;21689;-45
2021/09/06 05:20:27;;;;;;;7.25;6.55;;;;;;;15.09;54.78;101501.98;1700537;83;21112;-46
2021/09/06 05:22:56;;;;;;;8.15;6.28;;;;;;;15.33;53.45;101502.11;1696122;82;21060;-47
2021/09/06 05:25:24;;;;;;;8.80;7.08;;;;;;;15.45;53.44;101501.11;1671488;84;21035;-48
2021/09/06 05:27:51;;;;;;;9.35;6.90;;;;;;;15.47;52.99;101500.41;1667530;84;21082;-48
2021/09/06 05:30:17;;;;;;;9.58;7.22;;;;;;;15.30;52.36;101496.62;1670482;84;21543;-45
2021/09/06 05:32:44;;;;;;;7.05;5.90;;;;;;;14.98;53.46;101501.44;1655265;85;21049;-46
2021/09/06 05:35:14;;;;;;;7.75;6.90;;;;;;;14.67;54.98;101504.87;1674236;84;21033;-46
2021/09/06 05:37:42;;;;;;;9.20;6.90;;;;;;;14.50;55.49;101503.69;1653635;85;21062;-44
2021/09/06 05:40:10;;;;;;;8.35;6.47;;;;;;;14.40;56.25;101505.31;1669904;84;21578;-46
2021/09/06 05:42:37;;;;;;;8.28;6.47;;;;;;;14.37;55.90;101506.19;1669799;84;21101;-47
2021/09/06 05:45:05;;;;;;;10.93;6.00;;;;;;;14.30;56.44;101501.27;1668110;84;21599;-46
2021/09/06 05:47:33;;;;;;;7.12;6.08;;;;;;;14.38;56.46;101503.84;1640257;86;21097;-46
2021/09/06 05:50:04;;;;;;;8.55;6.15;;;;;;;14.49;55.96;101500.70;1644308;86;21619;-47
2021/09/06 05:52:32;;;;;;;7.80;5.55;;;;;;;14.55;56.38;101505.83;1683330;84;21101;-48
2021/09/06 05:55:00;;;;;;;7.47;5.50;;;;;;;14.71;56.37;101510.19;1641963;86;21690;-46
2021/09/06 05:57:26;;;;;;;8.05;5.62;;;;;;;14.85;55.85;101507.17;1650231;85;21687;-45
2021/09/06 05:59:53;;;;;;;5.45;4.87;;;;;;;14.83;55.59;101507.87;1619228;87;21058;-47
2021/09/06 06:02:20;;;;;;;4.87;2.80;;;;;;;14.71;55.92;101507.50;1649462;86;21056;-47
2021/09/06 06:04:46;;;;;;;4.53;3.05;;;;;;;14.64;55.60;101514.66;1691547;83;21026;-46
2021/09/06 06:07:12;;;;;;;5.58;3.90;;;;;;;14.55;56.14;101510.67;1699174;83;21026;-46
2021/09/06 06:09:39;;;;;;;7.90;3.27;;;;;;;14.57;56.54;101505.16;1694853;83;21080;-45
2021/09/06 06:12:08;;;;;;;4.22;2.95;;;;;;;14.63;56.51;101502.24;1685438;83;21121;-47
2021/09/06 06:14:35;;;;;;;3.58;2.60;;;;;;;14.65;55.91;101505.05;1671977;84;21066;-47
2021/09/06 06:17:02;;;;;;;6.40;1.95;;;;;;;14.68;54.87;101503.34;1675390;84;21152;-46
2021/09/06 06:19:33;;;;;;;2.35;2.08;;;;;;;14.69;53.36;101506.37;1665628;84;21567;-46
2021/09/06 06:22:13;;;;;;;2.98;1.82;;;;;;;14.69;53.33;101508.20;1616555;83;21099;-47
2021/09/06 06:24:50;;;;;;;;;;;;;;;14.68;53.69;101510.06;1664831;84;21791;-47
2021/09/06 06:27:18;;;;;;;4.30;1.87;;;;;;;14.73;53.66;101511.68;1652776;84;20181;-46
2021/09/06 06:29:46;;;;;;;5.35;1.90;;;;;;;14.76;52.93;101509.13;1639359;86;21077;-47
2021/09/06 06:32:13;;;;;;;5.80;2.33;;;;;;;14.81;52.32;101509.40;1671652;84;21112;-48
2021/09/06 06:34:40;;;;;;;;;;;;;;;14.88;51.32;101509.47;1680709;84;20998;-47
2021/09/06 06:37:06;;;;;;;4.92;1.87;;;;;;;14.84;50.69;101509.00;1671454;84;20105;-46
2021/09/06 06:39:33;;;;;;;3.83;2.37;;;;;;;14.69;49.92;101514.42;1672156;84;21135;-47
2021/09/06 06:42:00;;;;;;;7.22;2.15;;;;;;;14.55;49.76;101512.53;1676561;84;21869;-48
2021/09/06 06:44:28;;;;;;;4.30;1.87;;;;;;;14.40;49.37;101512.53;1664623;84;21607;-47
2021/09/06 06:46:56;;;;;;;3.65;1.92;;;;;;;14.27;49.36;101516.38;1672028;84;21107;-48
2021/09/06 06:49:24;;;;;;;2.83;2.00;;;;;;;14.24;50.14;101510.02;1672273;84;21086;-48
2021/09/06 06:51:50;;;;;;;7.12;2.83;;;;;;;14.30;49.73;101512.81;1672734;84;21119;-48
2021/09/06 06:54:17;;;;;;;5.95;2.67;;;;;;;14.28;49.33;101518.02;1656571;85;21132;-48
2021/09/06 06:56:46;;;;;;;4.47;2.02;;;;;;;14.21;50.40;101519.28;1682082;83;21108;-49
2021/09/06 06:59:12;;;;;;;4.25;1.75;;;;;;;14.15;51.47;101518.16;1683215;84;21070;-47
2021/09/06 07:01:39;;;;;;;3.60;2.17;;;;;;;14.17;50.27;101517.98;1697085;83;21571;-50
2021/09/06 07:04:08;;;;;;;5.55;2.20;;;;;;;14.19;50.30;101520.80;1703353;83;21191;-47
2021/09/06 07:06:36;;;;;;;6.50;2.50;;;;;;;14.21;50.94;101521.45;1697210;84;21017;-48
2021/09/06 07:09:02;;;;;;;;;;;;;;;14.29;50.58;101527.74;1699723;83;21566;-48
2021/09/06 07:11:30;;;;;;;3.90;2.15;;;;;;;14.30;50.21;101526.23;1685362;83;20148;-49
2021/09/06 07:13:59;;;;;;;4.37;1.77;;;;;;;14.19;50.60;101530.70;1696771;83;21037;-49
2021/09/06 07:16:25;;;;;;;1.85;1.65;;;;;;;14.20;50.29;101531.86;1699840;83;21053;-49
2021/09/06 07:18:52;;;;;;;5.30;1.92;;;;;;;14.18;50.00;101535.23;1685376;84;21132;-50
2021/09/06 07:21:19;;;;;;;2.17;1.10;;;;;;;14.19;49.08;101532.86;1682533;83;21597;-48
2021/09/06 07:23:47;;;;;;;3.62;1.27;;;;;;;14.24;48.90;101535.50;1704681;83;21084;-47
2021/09/06 07:26:16;;;;;;;2.17;1.00;;;;;;;14.29;47.80;101534.45;1696126;83;21032;-47
2021/09/06 07:28:44;;;;;;;2.47;1.35;;;;;;;14.29;47.87;101537.95;1676184;84;21065;-47
2021/09/06 07:31:11;;;;;;;3.22;1.35;;;;;;;14.33;48.42;101539.25;1694530;84;21070;-58
2021/09/06 07:33:37;;;;;;;2.52;1.17;;;;;;;14.35;49.34;101537.25;1685977;84;21555;-57
2021/09/06 07:36:05;;;;;;;3.37;1.35;;;;;;;14.39;48.80;101541.70;1701306;83;21057;-58
2021/09/06 07:38:31;;;;;;;2.55;0.98;;;;;;;14.37;48.69;101543.25;1702004;83;21017;-57
2021/09/06 07:40:58;;;;;;;;;;;;;;;14.36;47.80;101540.23;1705615;83;21087;-59
2021/09/06 07:43:25;;;;;;;1.37;0.80;;;;;;;14.33;47.15;101545.13;1708500;83;20668;-58
2021/09/06 07:45:53;;;;;;;2.22;0.98;;;;;;;14.21;48.44;101548.77;1692160;84;21031;-58
2021/09/06 07:48:20;;;;;;;2.55;1.10;;;;;;;14.17;48.38;101547.48;1698925;83;21089;-58
2021/09/06 07:50:48;;;;;;;2.55;0.75;;;;;;;14.18;48.09;101549.13;1689108;83;21024;-58
2021/09/06 07:53:16;;;;;;;4.22;2.35;;;;;;;14.17;48.27;101552.33;1679602;84;21714;-56
2021/09/06 07:55:43;;;;;;;3.80;1.32;;;;;;;14.19;48.77;101546.79;1695197;81;21852;-57
2021/09/06 07:58:10;;;;;;;3.52;1.75;;;;;;;14.26;49.40;101549.55;1696155;83;21509;-56
2021/09/06 08:00:38;;;;;;;3.87;1.62;;;;;;;14.32;49.34;101547.50;1688730;83;21015;-57
2021/09/06 08:03:04;;;;;;;2.75;1.37;;;;;;;14.36;50.81;101550.14;1684441;84;21076;-58
2021/09/06 08:05:32;;;;;;;5.72;2.47;;;;;;;14.42;48.16;101550.73;1693781;83;20991;-58
2021/09/06 08:08:01;;;;;;;3.58;1.60;;;;;;;14.39;48.23;101544.39;1704449;83;21079;-58
2021/09/06 08:10:29;;;;;;;5.55;1.32;;;;;;;14.33;48.30;101549.98;1701939;83;21088;-57
2021/09/06 08:12:56;;;;;;;3.55;1.35;;;;;;;14.32;48.48;101544.82;1699217;83;21036;-59
2021/09/06 08:15:25;;;;;;;1.52;1.12;;;;;;;14.32;48.57;101537.60;1684582;84;20997;-59
2021/09/06 08:17:52;;;;;;;1.10;1.00;;;;;;;14.43;48.24;101543.52;1696957;83;21053;-59
2021/09/06 08:20:19;;;;;;;2.60;1.30;;;;;;;14.46;47.57;101546.66;1697865;83;21053;-57
2021/09/06 08:22:47;;;;;;;2.35;1.40;;;;;;;14.47;46.98;101540.30;1704866;80;21033;-58
2021/09/06 08:25:14;;;;;;;1.87;1.70;;;;;;;14.47;47.33;101540.30;1698215;83;21017;-57
2021/09/06 08:27:42;;;;;;;2.30;1.37;;;;;;;14.51;48.04;101547.47;1699258;83;21057;-58
2021/09/06 08:30:13;;;;;;;5.17;0.72;;;;;;;14.56;48.37;101545.04;1667817;84;20996;-58
2021/09/06 08:32:43;;;;;;;3.40;0.88;;;;;;;14.65;47.27;101556.55;1671910;83;21633;-58
2021/09/06 08:35:11;;;;;;;7.12;1.00;;;;;;;14.73;47.30;101548.39;1683311;82;21045;-60
2021/09/06 08:37:39;;;;;;;1.92;1.00;;;;;;;14.83;47.78;101546.80;1697562;83;21112;-56
2021/09/06 08:40:09;;;;;;;3.83;1.25;;;;;;;14.88;45.29;101548.38;1699489;83;21057;-57
2021/09/06 08:42:38;;;;;;;1.50;0.78;;;;;;;14.84;45.51;101548.44;1685411;84;21065;-58
2021/09/06 08:45:09;;;;;;;1.70;0.98;;;;;;;14.84;46.00;101544.42;1662641;84;21034;-57
2021/09/06 08:47:35;;;;;;;1.75;1.07;;;;;;;14.88;46.84;101538.99;1718142;82;21147;-58
2021/09/06 08:50:08;;;;;;;4.42;1.22;;;;;;;14.95;45.95;101539.91;1677164;83;20989;-58
2021/09/06 08:52:34;;;;;;;1.00;0.80;;;;;;;15.01;45.90;101542.35;1682005;84;21599;-58
2021/09/06 08:55:04;;;;;;;4.87;0.72;;;;;;;15.07;42.73;101538.91;1663892;82;21160;-43
2021/09/06 08:57:30;;;;;;;1.10;0.30;;;;;;;15.11;42.31;101540.22;1696402;83;21136;-57
2021/09/06 08:59:59;;;;;;;3.02;0.62;;;;;;;15.15;42.67;101538.30;1679608;83;21052;-58
2021/09/06 09:02:40;;;;;;;1.50;0.45;;;;;;;15.27;42.57;101549.37;1658449;84;21058;-57
2021/09/06 09:05:26;;;;;;;1.05;0.65;;;;;;;15.43;40.74;101543.46;1700466;83;21025;-57
2021/09/06 09:08:04;;;;;;;1.62;0.65;;;;;;;15.47;40.82;101540.19;1688037;83;20989;-57
2021/09/06 09:10:49;;;;;;;4.20;0.90;;;;;;;15.55;41.81;101545.42;1685895;83;21595;-59
2021/09/06 09:13:20;;;;;;;0.62;0.62;;;;;;;15.64;42.06;101542.11;1703913;84;21125;-58
2021/09/06 09:15:54;;;;;;;1.50;0.57;;;;;;;15.69;42.28;101537.48;1714053;82;22242;-58
2021/09/06 09:18:29;;;;;;;0.88;0.40;;;;;;;15.66;40.62;101537.38;1705673;82;21580;-59
2021/09/06 09:21:14;;;;;;;0.20;0.10;;;;;;;15.61;39.45;101541.14;1711138;82;21038;-58
2021/09/06 09:24:01;;;;;;;0.45;0.30;;;;;;;15.61;38.41;101539.80;1716091;82;20979;-58
2021/09/06 09:26:34;;;;;;;0.95;0.65;;;;;;;15.60;38.02;101542.18;1709855;82;21118;-58
2021/09/06 09:29:07;;;;;;;1.57;0.20;;;;;;;15.55;37.89;101536.02;1704727;83;21552;-59
2021/09/06 09:31:32;;;;;;;1.17;0.75;;;;;;;15.48;38.46;101534.30;1708131;82;21015;-58
2021/09/06 09:34:16;;;;;;;0.82;0.20;;;;;;;15.42;38.17;101539.09;1695791;82;21038;-60
2021/09/06 09:36:53;;;;;;;1.85;0.30;;;;;;;15.40;38.20;101538.45;1702555;84;21169;-58
2021/09/06 09:39:22;;;;;;;2.67;0.20;;;;;;;15.38;38.62;101536.78;1687585;84;21062;-58
2021/09/06 09:41:53;;;;;;;0.47;0.37;;;;;;;15.31;39.17;101538.59;1687866;85;21061;-58
2021/09/06 09:44:26;;;;;;;2.35;0.40;;;;;;;15.28;38.70;101544.85;1662933;83;21099;-58
2021/09/06 09:47:04;;;;;;;1.87;0.10;;;;;;;15.15;38.27;101530.23;1689036;83;21687;-59
2021/09/06 09:49:33;;;;;;;0.20;0.10;;;;;;;15.12;36.32;101541.87;1691388;84;21640;-59
2021/09/06 09:52:00;;;;;;;0.10;0.10;;;;;;;15.10;35.69;101539.89;1688037;85;21028;-58
2021/09/06 09:54:27;;;;;;;0.68;0.15;;;;;;;15.15;35.27;101539.64;1688079;84;21069;-58
2021/09/06 09:56:54;;;;;;;2.12;0.10;;;;;;;15.24;33.60;101543.05;1695112;84;21042;-58
2021/09/06 09:59:21;;;;;;;0.80;0.20;;;;;;;15.27;33.39;101545.86;1684580;85;21109;-58
2021/09/06 10:02:10;;;;;;;0.20;0.20;;;;;;;15.20;33.24;101543.12;1671816;85;21106;-59
2021/09/06 10:04:54;;;;;;;1.32;0.35;;;;;;;15.15;34.24;101541.50;1608242;88;21119;-60
2021/09/06 10:07:24;;;;;;;0.20;0.20;;;;;;;15.02;35.73;101539.48;1650070;85;21605;-58
2021/09/06 10:09:52;;;;;;;0.95;0.10;;;;;;;14.92;36.14;101543.81;1602221;87;21027;-57
2021/09/06 10:12:24;;;;;;;0.37;0.10;;;;;;;14.86;36.93;101545.91;1644103;85;21079;-60
2021/09/06 10:15:03;;;;;;;0.35;0.17;;;;;;;14.81;35.49;101544.30;1662830;84;21561;-59
2021/09/06 10:17:41;;;;;;;0.60;0.20;;;;;;;14.81;36.22;101543.47;1667387;84;21624;-59
2021/09/06 10:20:17;;;;;;;0.35;0.20;;;;;;;14.84;38.23;101544.42;1663970;85;21042;-59
2021/09/06 10:22:47;;;;;;;1.22;0.25;;;;;;;14.89;37.36;101552.23;1670281;84;22108;-59
2021/09/06 10:25:19;;;;;;;1.42;0.30;;;;;;;14.88;38.74;101542.53;1694267;82;21016;-58
2021/09/06 10:27:57;;;;;;;0.20;0.15;;;;;;;14.90;38.38;101546.34;1694422;82;21083;-57
2021/09/06 10:30:50;;;;;;;1.05;0.30;;;;;;;14.89;38.60;101547.38;1699671;82;21026;-58
2021/09/06 10:33:38;;;;;;;0.90;0.30;;;;;;;14.89;37.65;101546.86;1689595;82;21468;-58
2021/09/06 10:36:11;;;;;;;;;;;;;;;14.86;35.79;101548.59;1664354;84;21055;-58
2021/09/06 10:39:02;;;;;;;0.50;0.20;;;;;;;14.77;35.46;101551.87;1672406;84;20165;-60
2021/09/06 10:41:29;;;;;;;0.37;0.37;;;;;;;14.61;35.79;101549.38;1711942;82;21023;-58
2021/09/06 10:44:05;;;;;;;1.25;0.40;;;;;;;14.53;36.64;101546.77;1711913;82;21030;-57
2021/09/06 10:46:31;;;;;;;2.60;2.40;;;;;;;14.54;37.53;101551.95;1709151;82;21105;-59
2021/09/06 10:49:03;;;;;;;1.22;0.30;;;;;;;14.64;37.04;101550.88;1668090;84;21012;-59
2021/09/06 10:51:33;;;;;;;0.75;0.20;;;;;;;14.71;36.53;101556.66;1668181;84;21574;-57
2021/09/06 10:54:06;;;;;;;0.80;0.20;;;;;;;14.78;35.75;101548.68;1715694;82;21031;-60
2021/09/06 10:56:36;;;;;;;1.25;0.20;;;;;;;14.80;34.65;101549.33;1705651;82;21028;-60
2021/09/06 10:59:04;;;;;;;2.65;0.10;;;;;;;14.85;35.27;101548.78;1706715;82;21046;-60
2021/09/06 11:01:36;;;;;;;0.60;0.20;;;;;;;14.92;33.28;101542.98;1709957;82;21082;-59
2021/09/06 11:53:19;;;;;;;2.72;0.15;;;;;;;14.83;34.69;101498.48;1780446;78;22698;-77
2021/09/06 11:55:55;;;;;;;1.77;0.50;;;;;;;14.73;35.63;101504.97;1732461;81;21029;-77
2021/09/06 11:58:27;;;;;;;1.05;0.40;;;;;;;14.79;35.94;101510.09;1657964;86;21041;-78
2021/09/06 12:01:05;;;;;;;0.65;0.40;;;;;;;14.86;35.65;101506.99;1655829;86;21065;-77
2021/09/06 12:03:33;;;;;;;0.55;0.20;;;;;;;14.92;35.71;101499.52;1656167;86;21167;-77
2021/09/06 12:06:06;;;;;;;0.80;0.30;;;;;;;15.01;36.52;101505.59;1668157;85;21108;-79
2021/09/06 12:08:33;;;;;;;1.15;0.35;;;;;;;15.12;36.59;101499.72;1684674;83;21755;-77
2021/09/06 12:17:02;;;;;;;0.78;0.40;;;;;;;15.46;36.58;101490.15;1785919;77;22230;-76
2021/09/06 12:19:28;;;;;;;0.30;0.20;;;;;;;15.47;36.21;101499.06;1747025;80;21280;-76
2021/09/06 12:21:54;;;;;;;;;;;;;;;15.47;35.33;101484.28;1711376;83;21105;-75
2021/09/06 12:24:26;;;;;;;0.95;0.30;;;;;;;15.43;35.28;101493.77;1704020;82;20200;-75
2021/09/06 12:26:53;;;;;;;0.93;0.50;;;;;;;15.30;35.72;101492.59;1690652;83;21092;-75
2021/09/06 12:29:34;;;;;;;0.80;0.37;;;;;;;15.31;36.01;101486.70;1698683;82;21652;-75
2021/09/06 12:32:03;;;;;;;4.12;0.33;;;;;;;15.37;36.15;101486.78;1691070;83;21024;-77
2021/09/06 12:34:32;;;;;;;1.57;0.28;;;;;;;15.43;36.57;101482.49;1672217;83;21698;-75